Latest Weather Observations for Perth

IDW60801

Issued at 10:35 pm WST Tuesday 29 July 2014 (issued every 30 minutes, with the page automatically refreshed every 10 minutes)

About weather observations | Map of weather stations | Latest weather observations for WA | Other Formats
Station Details ID: 009225 Name: PERTH METRO Lat: -31.92 Lon: 115.87 Height: 24.9 m
Data from the previous 72 hours. | See also: Recent months at Perth
Date/Time
WST
Temp
°C
App
Temp
°C
Dew
Point
Rel
Hum
%
Delta-T
°C
Wind Press
QNH
hPa
Press
MSL
hPa
Rain
since 9 am
mm
Dir
 
Spd
km/h
Gust
km/h
Spd
kts
Gust
kts
29/10:30pm 16.5 15.2 9.9 65 3.4 W 7 17 4 9 1023.2 - 0.0
29/10:00pm 16.8 14.9 9.2 61 3.9 WNW 9 15 5 8 1023.2 1023.2 0.0
29/09:30pm 16.8 14.9 9.0 60 4.0 WNW 9 20 5 11 1023.3 - 0.0
29/09:00pm 16.5 15.3 9.4 63 3.7 W 6 9 3 5 1023.4 1023.4 0.0
29/08:30pm 16.5 15.1 9.7 64 3.6 W 7 13 4 7 1023.4 - 0.0
29/08:00pm 16.7 14.9 9.4 62 3.8 W 9 17 5 9 1023.4 1023.4 0.0
29/07:30pm 16.7 15.0 9.9 64 3.6 W 9 15 5 8 1023.5 - 0.0
29/07:00pm 16.7 15.7 10.3 66 3.4 W 6 11 3 6 1023.4 1023.4 0.0
29/06:30pm 16.7 15.7 11.0 69 3.1 W 7 11 4 6 1023.3 - 0.0
29/06:00pm 16.3 16.3 11.2 72 2.7 WNW 2 9 1 5 1023.3 1023.3 0.0
29/05:30pm 16.1 15.2 10.8 71 2.8 NW 6 11 3 6 1023.2 - 0.0
29/05:00pm 16.8 15.5 11.1 69 3.1 W 9 17 5 9 1023.0 1023.0 0.0
29/04:30pm 17.2 15.8 10.8 66 3.4 W 9 17 5 9 1022.9 - 0.0
29/04:00pm 18.2 16.3 11.7 66 3.6 W 13 22 7 12 1022.9 1022.9 0.0
29/03:30pm 19.0 17.8 11.6 62 4.1 W 9 15 5 8 1023.0 - 0.0
29/03:00pm 18.5 16.8 11.1 62 4.0 W 11 20 6 11 1022.9 1022.9 0.0
29/02:30pm 18.7 16.1 10.8 60 4.3 W 15 22 8 12 1022.9 - 0.0
29/02:00pm 18.8 16.5 10.6 59 4.4 W 13 24 7 13 1022.8 1022.8 0.0
29/01:30pm 19.4 17.2 10.7 57 4.7 W 13 24 7 13 1022.8 - 0.0
29/01:00pm 19.0 17.1 10.6 58 4.5 WNW 11 20 6 11 1022.9 1022.9 0.0
29/12:30pm 18.5 16.0 9.8 57 4.6 NW 13 22 7 12 1023.1 - 0.0
29/12:00pm 18.9 16.6 10.5 58 4.5 W 13 20 7 11 1023.4 1023.4 0.0
29/11:30am 17.8 15.6 10.7 63 3.8 W 13 24 7 13 1023.8 - 0.0
29/11:00am 17.5 15.7 10.9 65 3.5 W 11 17 6 9 1024.0 1024.0 0.0
29/10:30am 18.0 16.9 12.0 68 3.3 WSW 9 19 5 10 1024.5 - 0.0
29/10:00am 16.3 14.9 12.3 77 2.2 WSW 11 20 6 11 1024.8 1024.8 0.0
29/09:30am 15.7 14.9 13.0 84 1.5 N 9 13 5 7 1024.6 - 0.0
29/09:00am 14.9 15.8 12.8 87 1.1 CALM 0 0 0 0 1024.4 1024.4 0.4
29/08:30am 14.0 13.5 12.2 89 1.0 WNW 6 9 3 5 1024.1 - 0.4
29/08:00am 12.1 12.5 11.2 94 0.5 CALM 0 4 0 2 1023.8 1023.8 0.4
29/07:30am 11.7 10.8 10.6 93 0.6 NE 6 9 3 5 1023.4 - 0.4
29/07:00am 11.9 11.1 11.0 94 0.5 NNE 6 9 3 5 1023.0 1023.0 0.4
29/06:30am 11.5 11.4 10.7 95 0.4 NE 2 6 1 3 1022.7 - 0.4
29/06:00am 11.1 11.3 10.5 96 0.3 CALM 0 0 0 0 1022.7 1022.7 0.0
29/05:30am 10.8 9.6 10.2 96 0.3 NE 7 9 4 5 1022.4 - 0.0
29/05:00am 10.8 10.9 10.2 96 0.3 NW 0 6 0 3 1022.2 1022.2 0.0
29/04:30am 11.0 10.3 10.2 95 0.4 NW 4 7 2 4 1022.4 - 0.0
29/04:00am 11.8 12.1 11.0 95 0.4 CALM 0 0 0 0 1022.2 1022.2 0.0
29/03:30am 11.9 12.3 11.1 95 0.4 CALM 0 0 0 0 1022.3 - 0.0
29/03:00am 12.1 12.5 11.2 94 0.5 CALM 0 0 0 0 1022.5 1022.5 0.0
29/02:30am 12.7 13.1 11.4 92 0.7 CALM 0 0 0 0 1022.5 - 0.0
29/02:00am 13.9 14.6 12.3 90 0.9 CALM 0 0 0 0 1022.5 1022.5 0.0
29/01:30am 15.1 15.1 12.4 84 1.5 NW 4 9 2 5 1022.8 - 0.0
29/01:00am 16.0 15.7 11.6 75 2.4 WSW 4 7 2 4 1022.9 1022.9 0.0
29/12:30am 16.1 14.9 11.5 74 2.5 W 9 17 5 9 1022.9 - 0.0
29/12:00am 16.1 15.0 11.9 76 2.3 W 9 19 5 10 1022.8 1022.8 0.0
 
Date/Time
WST
Temp
°C
App
Temp
°C
Dew
Point
Rel
Hum
%
Delta-T
°C
Wind Press
QNH
hPa
Press
MSL
hPa
Rain
since 9 am
mm
Dir
 
Spd
km/h
Gust
km/h
Spd
kts
Gust
kts
28/11:30pm 15.6 15.2 11.2 75 2.4 WNW 4 9 2 5 1022.8 - 0.0
28/11:00pm 15.6 14.5 11.8 78 2.1 W 9 15 5 8 1023.1 1023.1 0.0
28/10:30pm 15.5 14.8 11.9 79 2.0 W 7 13 4 7 1023.3 - 0.0
28/10:00pm 16.2 15.1 11.8 75 2.4 W 9 15 5 8 1023.4 1023.4 0.0
28/09:30pm 15.9 15.2 11.9 77 2.2 W 7 13 4 7 1023.5 - 0.0
28/09:00pm 15.6 14.8 11.8 78 2.1 W 7 13 4 7 1023.4 1023.4 0.0
28/08:30pm 15.7 14.8 11.3 75 2.4 W 7 11 4 6 1023.4 - 0.0
28/08:00pm 16.4 15.0 10.9 70 2.9 W 9 20 5 11 1023.3 1023.3 0.0
28/07:30pm 16.5 14.9 11.4 72 2.8 W 11 19 6 10 1023.3 - 0.0
28/07:00pm 16.7 13.7 12.0 74 2.6 WSW 19 30 10 16 1023.2 1023.2 0.0
28/06:30pm 17.1 15.8 11.2 68 3.2 W 9 19 5 10 1022.9 - 0.0
28/06:00pm 17.1 15.6 10.5 65 3.5 W 9 15 5 8 1022.5 1022.5 0.0
28/05:30pm 17.2 15.3 9.1 59 4.2 W 9 15 5 8 1022.3 - 0.0
28/05:00pm 17.4 15.4 8.5 56 4.6 W 9 17 5 9 1022.2 1022.2 0.0
28/04:30pm 18.1 15.4 8.9 55 4.8 W 13 22 7 12 1022.2 - 0.0
28/04:00pm 18.5 15.6 8.2 51 5.3 W 13 24 7 13 1021.8 1021.8 0.0
28/03:30pm 18.8 15.7 9.0 53 5.1 WNW 15 24 8 13 1021.6 - 0.0
28/03:00pm 18.9 15.9 9.4 54 5.0 WNW 15 26 8 14 1021.7 1021.7 0.0
28/02:30pm 18.8 15.8 10.6 59 4.4 W 17 28 9 15 1021.9 - 0.0
28/02:00pm 19.2 16.8 10.2 56 4.8 WNW 13 26 7 14 1022.2 1022.2 0.0
28/01:30pm 17.8 15.5 10.4 62 4.0 WNW 13 24 7 13 1022.4 - 0.0
28/01:00pm 18.5 15.8 10.3 59 4.4 W 15 26 8 14 1022.7 1022.7 0.0
28/12:30pm 17.5 14.9 12.0 70 3.0 SW 17 28 9 15 1023.1 - 0.0
28/12:00pm 17.6 16.5 12.1 70 3.0 WNW 9 17 5 9 1023.4 1023.4 0.0
28/11:30am 16.5 15.2 12.5 77 2.2 NW 11 24 6 13 1023.7 - 0.0
28/11:00am 16.6 14.0 11.9 74 2.6 WNW 17 26 9 14 1023.9 1023.9 0.0
28/10:30am 16.2 14.9 11.2 72 2.7 NW 9 17 5 9 1024.0 - 0.0
28/10:00am 15.8 14.5 12.4 80 1.9 W 11 24 6 13 1023.9 1023.9 0.0
28/09:30am 15.4 13.5 10.4 72 2.6 WNW 11 30 6 16 1023.6 - 0.0
28/09:00am 16.3 16.0 12.8 80 1.9 WNW 6 11 3 6 1023.2 1023.2 0.8
28/08:30am 14.3 13.9 12.5 89 1.0 W 6 11 3 6 1023.0 - 0.8
28/08:00am 14.5 12.5 11.6 83 1.5 W 13 32 7 17 1023.0 1023.0 0.6
28/07:30am 15.1 13.8 10.1 72 2.6 WNW 7 13 4 7 1022.4 - 0.2
28/07:00am 14.9 13.3 10.1 73 2.5 W 9 17 5 9 1022.1 1022.1 0.2
28/06:30am 15.0 13.5 10.6 75 2.3 WNW 9 17 5 9 1021.9 - 0.2
28/06:00am 14.3 12.9 8.7 69 2.8 W 6 9 3 5 1021.7 1021.7 0.2
28/05:30am 14.4 12.9 8.6 68 2.9 W 6 11 3 6 1021.6 - 0.2
28/05:00am 14.7 13.2 9.1 69 2.8 W 7 11 4 6 1021.7 1021.7 0.2
28/04:30am 15.2 13.3 9.1 67 3.1 W 9 15 5 8 1021.5 - 0.2
28/04:00am 14.8 12.8 8.5 66 3.2 W 9 15 5 8 1021.7 1021.7 0.2
28/03:30am 14.9 12.9 8.8 67 3.1 W 9 15 5 8 1021.8 - 0.2
28/03:00am 14.4 12.4 8.8 69 2.8 W 9 17 5 9 1021.9 1021.9 0.2
28/02:30am 14.7 12.5 8.0 64 3.3 W 9 13 5 7 1022.1 - 0.2
28/02:00am 15.3 12.8 8.1 62 3.6 WSW 11 19 6 10 1022.1 1022.1 0.2
28/01:30am 15.0 13.2 9.4 69 2.9 W 9 17 5 9 1022.0 - 0.2
28/01:00am 15.3 13.6 9.7 69 2.9 W 9 17 5 9 1022.1 1022.1 0.2
28/12:30am 15.1 13.4 9.9 71 2.7 W 9 17 5 9 1022.1 - 0.2
28/12:00am 14.6 13.2 9.4 71 2.7 W 7 13 4 7 1022.3 1022.3 0.2
 
Date/Time
WST
Temp
°C
App
Temp
°C
Dew
Point
Rel
Hum
%
Delta-T
°C
Wind Press
QNH
hPa
Press
MSL
hPa
Rain
since 9 am
mm
Dir
 
Spd
km/h
Gust
km/h
Spd
kts
Gust
kts
27/11:30pm 14.9 13.4 9.3 69 2.9 W 7 15 4 8 1022.4 - 0.2
27/11:00pm 14.6 13.1 9.0 69 2.8 W 7 13 4 7 1022.7 1022.7 0.2
27/10:30pm 14.7 13.6 10.1 74 2.4 W 6 13 3 7 1022.6 - 0.2
27/10:00pm 15.4 13.7 10.0 70 2.8 W 9 19 5 10 1022.8 1022.8 0.2
27/09:30pm 14.6 13.5 9.8 73 2.5 W 6 11 3 6 1022.8 - 0.2
27/09:00pm 15.3 13.6 9.9 70 2.8 W 9 19 5 10 1022.8 1022.8 0.2
27/08:30pm 15.3 13.9 10.9 75 2.3 W 9 13 5 7 1023.0 - 0.2
27/08:00pm 15.3 14.2 10.5 73 2.5 W 7 13 4 7 1022.6 1022.6 0.2
27/07:30pm 15.6 14.0 10.2 70 2.8 W 9 17 5 9 1022.6 - 0.2
27/07:00pm 15.7 14.0 10.0 69 3.0 W 9 15 5 8 1022.2 1022.2 0.2
27/06:30pm 15.8 14.4 9.7 67 3.2 W 7 17 4 9 1021.9 - 0.2
27/06:00pm 16.6 14.6 10.0 65 3.5 W 11 17 6 9 1021.7 1021.7 0.2
27/05:30pm 16.7 15.2 10.5 67 3.3 W 9 15 5 8 1021.4 - 0.2
27/05:00pm 16.8 14.4 10.2 65 3.5 W 13 26 7 14 1021.2 1021.2 0.2
27/04:30pm 17.6 15.4 10.9 65 3.6 W 13 24 7 13 1021.0 - 0.2
27/04:00pm 17.9 15.6 11.9 68 3.3 W 15 24 8 13 1020.8 1020.8 0.2
27/03:30pm 18.4 16.2 12.2 67 3.4 W 15 28 8 15 1020.7 - 0.2
27/03:00pm 18.2 15.5 11.7 66 3.6 W 17 24 9 13 1020.5 1020.5 0.2
27/02:30pm 16.8 15.4 13.5 81 1.9 WNW 13 26 7 14 1020.5 - 0.2
27/02:00pm 17.2 16.0 12.7 75 2.5 W 11 20 6 11 1020.4 1020.4 0.2
27/01:30pm 17.8 15.9 11.8 68 3.3 W 13 22 7 12 1020.5 - 0.0
27/01:00pm 17.2 16.5 13.1 77 2.3 W 9 20 5 11 1020.9 1020.9 0.0
27/12:30pm 18.0 17.1 12.7 71 3.0 W 9 19 5 10 1021.2 - 0.0
27/12:00pm 17.0 15.6 13.3 79 2.1 W 13 20 7 11 1021.6 1021.6 0.0
27/11:30am 16.5 15.1 13.4 82 1.7 WSW 13 24 7 13 1021.9 - 0.0
27/11:00am 16.3 14.8 13.0 81 1.8 WSW 13 20 7 11 1022.1 1022.1 0.0
27/10:30am 17.4 15.3 12.5 73 2.7 W 15 26 8 14 1022.1 - 0.0
27/10:00am 17.8 15.7 12.3 70 3.0 WNW 15 32 8 17 1022.0 1022.0 0.0
27/09:30am 17.5 15.6 11.8 69 3.1 W 13 28 7 15 1021.8 - 0.0
27/09:00am 16.0 15.1 12.6 80 1.9 W 9 19 5 10 1021.6 1021.6 14.0
27/08:30am 14.0 13.0 12.2 89 1.0 NW 9 15 5 8 1021.3 - 14.0
27/08:00am 14.1 13.5 12.3 89 1.0 W 7 17 4 9 1021.2 1021.2 14.0
27/07:30am 15.6 13.8 9.5 67 3.2 WNW 9 19 5 10 1020.6 - 13.2
27/07:00am 14.9 12.9 8.8 67 3.1 NW 9 15 5 8 1020.3 1020.3 13.2
27/06:30am 14.9 12.9 8.8 67 3.1 WNW 9 17 5 9 1020.1 - 13.2
27/06:00am 14.1 12.3 8.1 67 3.0 W 7 13 4 7 1019.9 1019.9 13.2
27/05:30am 14.3 12.6 8.5 68 2.9 WNW 7 13 4 7 1019.7 - 13.2
27/05:00am 14.5 12.3 8.0 65 3.2 W 9 15 5 8 1019.7 1019.7 13.2
27/04:30am 14.2 12.4 7.9 66 3.1 W 7 13 4 7 1019.8 - 13.2
27/04:00am 14.2 12.0 7.7 65 3.2 W 9 17 5 9 1019.9 1019.9 13.2
27/03:30am 14.1 12.7 8.9 71 2.6 WSW 6 9 3 5 1019.9 - 13.2
27/03:00am 14.5 12.4 6.8 60 3.7 W 7 15 4 8 1019.9 1019.9 13.2
27/02:30am 14.1 11.9 6.2 59 3.8 W 7 13 4 7 1019.9 - 13.2
27/02:00am 15.2 12.2 6.2 55 4.3 WNW 11 20 6 11 1020.0 1020.0 13.2
27/01:30am 15.1 12.8 7.4 60 3.8 W 9 17 5 9 1020.1 - 13.2
27/01:00am 15.0 12.9 6.8 58 4.0 WNW 7 17 4 9 1020.1 1020.1 13.2
27/12:30am 15.0 12.8 6.0 55 4.3 WNW 7 15 4 8 1020.1 - 13.2
27/12:00am 15.0 12.6 6.8 58 4.0 W 9 17 5 9 1020.1 1020.1 13.2
 
Date/Time
WST
Temp
°C
App
Temp
°C
Dew
Point
Rel
Hum
%
Delta-T
°C
Wind Press
QNH
hPa
Press
MSL
hPa
Rain
since 9 am
mm
Dir
 
Spd
km/h
Gust
km/h
Spd
kts
Gust
kts
26/11:30pm 14.2 12.4 7.9 66 3.1 WSW 7 15 4 8 1020.0 - 13.2
26/11:00pm 12.3 11.0 7.6 73 2.3 W 4 7 2 4 1019.9 1019.9 13.2

Other Formats:

Comma delimited format used in spreadsheet applications
http://www.bom.gov.au/fwo/IDW60801/IDW60801.94608.axf

JavaScript Object Notation format (JSON) in row-major order
http://www.bom.gov.au/fwo/IDW60801/IDW60801.94608.json